Flight Track Log - Related Links

Times and Time Zones

All times are in EDT time to prevent confusion due to time zone crossing. See the USC105 flight status page for this flight to view local times or setup timezone preferences in your user account.

Time Position Orientation Groundspeed Altitude Reporting Facility
EDT Latitude Longitude Course Direction KTS MPH feet Rate Location/Type
Mon 11:19:01 PM 41.5228 -81.7203 295° West 144 166 1,500  Level Cleveland Center
Mon 11:20:02 PM 41.5539 -81.7431 331° Northwest 144 166 2,400 836 Climbing Cleveland Center
Mon 11:21:03 PM 41.5783 -81.7822 310° West 134 154 3,200 694 Climbing Cleveland Center
Mon 11:22:03 PM 41.5967 -81.8269 299° West 137 158 3,800 595 Climbing Cleveland Center
Mon 11:23:04 PM 41.6150 -81.8747 297° West 142 163 4,400 694 Climbing Cleveland Center
Mon 11:24:04 PM 41.6269 -81.9192 290° West 130 150 5,200 793 Climbing Cleveland Center
Mon 11:25:05 PM 41.6431 -81.9642 296° West 133 153 6,000 393 Climbing Cleveland Center
Mon 11:26:06 PM 41.6611 -82.0200 293° West 165 190 6,000  Level Cleveland Center
Mon 11:27:06 PM 41.6792 -82.0789 292° West 168 193 6,000 -47 Level Cleveland Center
Mon 11:28:13 PM 41.6972 -82.1433 291° West 164 189 5,900 -47 Descending Cleveland Center
Mon 11:29:14 PM 41.7108 -82.1992 288° West 165 190 5,900  Level Cleveland Center
Mon 11:30:14 PM 41.7308 -82.2553 296° West 166 191 5,900  Level Cleveland Center
Mon 11:31:21 PM 41.7489 -82.3169 291° West 167 192 5,900  Level Cleveland Center
Mon 11:31:57 PM 41.7628 -82.3508 299° West 168 193 5,900  Level Cleveland Center
Mon 11:32:39 PM 41.7747 -82.3903 292° West 168 193 5,900  Level Cleveland Center
Mon 11:33:46 PM 41.7944 -82.4575 292° West 169 194 5,900  Level Cleveland Center
Mon 11:34:53 PM 41.8122 -82.5222 290° West 168 193 5,900  Level Cleveland Center
Mon 11:35:47 PM 41.8300 -82.5783 293° West 169 194 5,900  Level Cleveland Center
Mon 11:36:48 PM 41.8606 -82.6267 310° West 180 207 5,900  Level Cleveland Center
Mon 11:37:55 PM 41.8992 -82.6783 315° West 177 204 5,900  Level Cleveland Center
Mon 11:38:55 PM 41.9339 -82.7211 318° Northwest 175 201 5,900  Level Cleveland Center
Mon 11:40:02 PM 41.9703 -82.7728 313° West 173 199 5,900  Level Cleveland Center
Mon 11:41:03 PM 42.0069 -82.8158 319° Northwest 175 201 5,900 -58 Level Cleveland Center
Mon 11:41:45 PM 42.0336 -82.8475 319° Northwest 174 200 5,800  Descending Cleveland Center
Mon 11:42:46 PM 42.0700 -82.8936 317° Northwest 172 198 5,900 49 Climbing Cleveland Center
Mon 11:43:47 PM 42.1047 -82.9369 317° Northwest 169 194 5,900 -197 Level Cleveland Center
Mon 11:44:48 PM 42.1369 -82.9828 313° West 169 194 5,500 -446 Descending Cleveland Center
Mon 11:45:48 PM 42.1672 -83.0344 308° West 181 208 5,000 -298 Descending Cleveland Center
Mon 11:46:49 PM 42.2017 -83.0833 314° West 164 189 4,900 -49 Descending Cleveland Center
Mon 11:47:50 PM 42.2319 -83.1267 313° West 157 181 4,900  Level Cleveland Center
Mon 11:48:51 PM 42.2539 -83.1725 303° West 145 167 4,900  Level Cleveland Center
Mon 11:50:10 PM 42.3092 -83.2114 333° Northwest 166 191 4,900  Level Cleveland Center
Mon 11:51:10 PM 42.3481 -83.2411 331° Northwest 157 181 4,900  Level Cleveland Center
Mon 11:52:05 PM 42.3786 -83.2731 322° Northwest 155 178 4,900 -209 Level Cleveland Center
Mon 11:53:05 PM 42.3794 -83.3294 271° West 158 182 4,500 -495 Descending Cleveland Center
Mon 11:53:54 PM 42.3578 -83.3650 230° Southwest 155 178 4,000 -655 Descending Cleveland Center
Mon 11:54:55 PM 42.3317 -83.4117 233° Southwest 152 175 3,300 -843 Descending Cleveland Center
Mon 11:55:55 PM 42.2972 -83.4522 221° Southwest 169 194 2,300 -945 Descending Cleveland Center
Mon 11:57:02 PM 42.2628 -83.4983 225° Southwest 153 176 1,300 -896 Descending Cleveland Center
Mon 11:59:00 PM 42.2333 -83.5167 227° Southwest  Level FlightAware Approximate
Tue 12:06:00 AM 42.2393 -83.5310 227° Southwest  Level Estimated

Login

Don't have an account? Register now (free) for customized features, flight alerts, and more!